sensor_id;sensor_type;location;lat;lon;timestamp;pressure;altitude;pressure_sealevel;temperature;humidity
33731;BME280;22931;48.636;9.000;2023-12-22T01:05:54;94824.13;;;10.37;64.34
33731;BME280;22931;48.636;9.000;2023-12-22T01:11:02;94807.56;;;10.37;64.43
33731;BME280;22931;48.636;9.000;2023-12-22T01:16:09;94808.34;;;10.37;64.52
33731;BME280;22931;48.636;9.000;2023-12-22T01:21:20;94810.63;;;10.39;64.19
33731;BME280;22931;48.636;9.000;2023-12-22T01:26:27;94811.72;;;10.38;64.34
33731;BME280;22931;48.636;9.000;2023-12-22T01:31:35;94833.88;;;10.37;64.11
33731;BME280;22931;48.636;9.000;2023-12-22T01:36:45;94837.63;;;10.36;63.99
33731;BME280;22931;48.636;9.000;2023-12-22T01:41:54;94825.16;;;10.29;64.02
33731;BME280;22931;48.636;9.000;2023-12-22T01:47:02;94840.13;;;10.25;63.92
33731;BME280;22931;48.636;9.000;2023-12-22T01:52:12;94849.47;;;10.23;63.77
33731;BME280;22931;48.636;9.000;2023-12-22T01:57:21;94877.22;;;10.17;63.81
33731;BME280;22931;48.636;9.000;2023-12-22T02:02:29;94868.84;;;10.11;63.69
33731;BME280;22931;48.636;9.000;2023-12-22T02:07:41;94867.31;;;10.10;64.05
33731;BME280;22931;48.636;9.000;2023-12-22T02:12:49;94871.00;;;10.06;63.93
33731;BME280;22931;48.636;9.000;2023-12-22T02:18:02;94844.03;;;10.09;63.98
33731;BME280;22931;48.636;9.000;2023-12-22T02:23:13;94852.66;;;10.09;63.87
33731;BME280;22931;48.636;9.000;2023-12-22T02:28:20;94859.78;;;10.09;63.68
33731;BME280;22931;48.636;9.000;2023-12-22T02:33:31;94877.09;;;10.10;63.85
33731;BME280;22931;48.636;9.000;2023-12-22T02:38:45;94874.88;;;10.12;63.78
33731;BME280;22931;48.636;9.000;2023-12-22T02:43:53;94878.59;;;10.11;63.53
33731;BME280;22931;48.636;9.000;2023-12-22T02:49:01;94880.13;;;10.12;63.73
33731;BME280;22931;48.636;9.000;2023-12-22T02:54:11;94880.16;;;10.15;63.67
33731;BME280;22931;48.636;9.000;2023-12-22T02:59:19;94871.94;;;10.17;63.76
33731;BME280;22931;48.636;9.000;2023-12-22T03:04:26;94870.09;;;10.17;63.64
33731;BME280;22931;48.636;9.000;2023-12-22T03:09:37;94893.78;;;10.21;63.61
33731;BME280;22931;48.636;9.000;2023-12-22T03:14:44;94890.75;;;10.19;63.40
33731;BME280;22931;48.636;9.000;2023-12-22T03:19:52;94865.56;;;10.18;63.27
33731;BME280;22931;48.636;9.000;2023-12-22T03:25:02;94864.47;;;10.19;63.31
33731;BME280;22931;48.636;9.000;2023-12-22T03:30:11;94855.81;;;10.18;63.38
33731;BME280;22931;48.636;9.000;2023-12-22T03:35:20;94853.19;;;10.18;63.35
33731;BME280;22931;48.636;9.000;2023-12-22T03:40:30;94872.75;;;10.21;63.18
33731;BME280;22931;48.636;9.000;2023-12-22T03:45:38;94893.00;;;10.20;63.08
33731;BME280;22931;48.636;9.000;2023-12-22T03:50:46;94888.50;;;10.21;63.25
33731;BME280;22931;48.636;9.000;2023-12-22T03:55:56;94884.41;;;10.23;63.10
33731;BME280;22931;48.636;9.000;2023-12-22T04:01:04;94882.88;;;10.22;63.16
33731;BME280;22931;48.636;9.000;2023-12-22T04:06:12;94863.38;;;10.23;62.93
33731;BME280;22931;48.636;9.000;2023-12-22T04:11:22;94870.91;;;10.25;63.18
33731;BME280;22931;48.636;9.000;2023-12-22T04:16:30;94890.06;;;10.25;63.03
33731;BME280;22931;48.636;9.000;2023-12-22T04:21:38;94889.31;;;10.25;62.72
33731;BME280;22931;48.636;9.000;2023-12-22T04:26:48;94904.75;;;10.26;63.04
33731;BME280;22931;48.636;9.000;2023-12-22T04:31:56;94920.84;;;10.25;62.99
33731;BME280;22931;48.636;9.000;2023-12-22T04:37:03;94921.59;;;10.22;62.92
33731;BME280;22931;48.636;9.000;2023-12-22T04:42:14;94921.16;;;10.20;62.85
33731;BME280;22931;48.636;9.000;2023-12-22T04:47:21;94925.88;;;10.11;63.10
33731;BME280;22931;48.636;9.000;2023-12-22T04:52:29;94926.19;;;10.06;63.02
33731;BME280;22931;48.636;9.000;2023-12-22T04:57:39;94942.25;;;10.01;63.28
33731;BME280;22931;48.636;9.000;2023-12-22T05:02:47;94942.56;;;9.95;63.38
33731;BME280;22931;48.636;9.000;2023-12-22T05:07:55;94944.38;;;9.91;63.16
33731;BME280;22931;48.636;9.000;2023-12-22T05:13:05;94946.59;;;9.89;63.68
33731;BME280;22931;48.636;9.000;2023-12-22T05:18:13;94958.56;;;9.87;63.16
33731;BME280;22931;48.636;9.000;2023-12-22T05:23:21;94957.03;;;9.86;63.43
33731;BME280;22931;48.636;9.000;2023-12-22T05:28:32;94952.97;;;9.88;63.75
33731;BME280;22931;48.636;9.000;2023-12-22T05:33:39;94947.31;;;9.86;63.44
33731;BME280;22931;48.636;9.000;2023-12-22T05:38:47;94950.31;;;9.88;63.60
33731;BME280;22931;48.636;9.000;2023-12-22T05:43:57;94967.63;;;9.89;63.46
33731;BME280;22931;48.636;9.000;2023-12-22T05:49:05;94964.09;;;10.05;63.13
33731;BME280;22931;48.636;9.000;2023-12-22T05:54:13;94985.66;;;9.91;63.17
33731;BME280;22931;48.636;9.000;2023-12-22T05:59:24;95001.50;;;9.94;63.38
33731;BME280;22931;48.636;9.000;2023-12-22T06:04:32;94976.66;;;9.92;63.34
33731;BME280;22931;48.636;9.000;2023-12-22T06:09:40;94999.84;;;9.86;63.23
33731;BME280;22931;48.636;9.000;2023-12-22T06:14:50;95010.31;;;9.83;63.28
33731;BME280;22931;48.636;9.000;2023-12-22T06:19:57;94998.56;;;9.77;63.31
33731;BME280;22931;48.636;9.000;2023-12-22T06:25:06;95008.66;;;9.75;63.57
33731;BME280;22931;48.636;9.000;2023-12-22T06:30:17;95021.44;;;9.76;63.64
33731;BME280;22931;48.636;9.000;2023-12-22T06:35:24;95021.03;;;9.74;63.82
33731;BME280;22931;48.636;9.000;2023-12-22T06:40:32;95046.91;;;9.72;63.68
33731;BME280;22931;48.636;9.000;2023-12-22T06:45:44;95058.94;;;9.73;63.93
33731;BME280;22931;48.636;9.000;2023-12-22T06:50:52;95064.78;;;9.67;63.67
33731;BME280;22931;48.636;9.000;2023-12-22T06:56:00;95054.25;;;9.63;63.96
33731;BME280;22931;48.636;9.000;2023-12-22T07:01:10;95060.59;;;9.62;64.02
33731;BME280;22931;48.636;9.000;2023-12-22T07:06:18;95065.44;;;9.60;64.07
33731;BME280;22931;48.636;9.000;2023-12-22T07:11:26;95086.81;;;9.59;63.95
33731;BME280;22931;48.636;9.000;2023-12-22T07:16:44;95100.34;;;9.61;64.18
33731;BME280;22931;48.636;9.000;2023-12-22T07:21:53;95092.38;;;9.57;63.93
33731;BME280;22931;48.636;9.000;2023-12-22T07:27:00;95076.63;;;9.57;63.70
33731;BME280;22931;48.636;9.000;2023-12-22T07:32:10;95077.31;;;9.54;63.90
33731;BME280;22931;48.636;9.000;2023-12-22T07:37:19;95081.34;;;9.48;64.07
33731;BME280;22931;48.636;9.000;2023-12-22T07:42:29;95087.28;;;9.45;63.91
33731;BME280;22931;48.636;9.000;2023-12-22T07:47:39;95066.28;;;9.45;64.18
33731;BME280;22931;48.636;9.000;2023-12-22T07:52:47;95074.84;;;9.42;64.00
33731;BME280;22931;48.636;9.000;2023-12-22T07:57:55;95081.22;;;9.41;64.18
